Price, Maryland
Current Conditions -  °F | °C
As of 6:50 AM on Friday 19 Dec 2014 (Local Time) from KESN Reporting Station
Overcast Overcast  
Wind Chill: 31°   Ceiling: 3200
Heat Index: 37°   Visibility: 10mi
Dew Point: 27°   Wind: 8mph
Humidity: 65%   Direction: 310°NW
Pressure: 30.15"   Gusts: NA
Location:  39.1°N, 75.96°W
Report Text: KESN 191150Z 31007KT 10SM OVC032 03/M03 A3015
Loading
Personal Weather Stations






























Interactive Weather Map New forecast layout! Learn more

10-Day Weather Forecast

Advertisements
Track Severe Weather on mobile